createdAt,value
2017-10-31T00:02:14.667Z,8.17
2017-10-31T00:04:43.105Z,8.13
2017-10-31T00:07:11.426Z,7.13
2017-10-31T00:09:40.504Z,7.60
2017-10-31T00:12:08.840Z,8.20
2017-10-31T00:14:37.168Z,7.90
2017-10-31T00:17:05.505Z,6.93
2017-10-31T00:19:33.829Z,7.20
2017-10-31T00:22:02.166Z,7.40
2017-10-31T00:24:31.106Z,7.50
2017-10-31T00:26:59.515Z,10.00
2017-10-31T00:29:27.836Z,7.70
2017-10-31T00:31:56.193Z,7.40
2017-10-31T00:34:24.506Z,7.13
2017-10-31T00:36:52.843Z,8.67
2017-10-31T00:39:21.174Z,8.40
2017-10-31T00:41:49.536Z,7.70
2017-10-31T00:44:17.862Z,9.07
2017-10-31T00:46:46.188Z,8.73
2017-10-31T00:49:14.517Z,8.17
2017-10-31T00:51:42.854Z,9.00
2017-10-31T00:54:11.220Z,7.60
2017-10-31T00:56:39.561Z,7.57
2017-10-31T00:59:08.084Z,7.00
2017-10-31T01:01:36.405Z,7.60
2017-10-31T01:04:04.833Z,7.60
2017-10-31T01:06:33.173Z,7.37
2017-10-31T01:09:01.767Z,6.70
2017-10-31T01:11:30.097Z,7.97
2017-10-31T01:13:58.405Z,7.43
2017-10-31T01:16:26.780Z,7.80
2017-10-31T01:18:55.111Z,6.67
2017-10-31T01:21:23.429Z,8.07
2017-10-31T01:23:51.780Z,7.80
2017-10-31T01:26:20.082Z,6.80
2017-10-31T01:28:48.399Z,8.20
2017-10-31T01:31:16.712Z,7.00
2017-10-31T01:33:45.049Z,7.73
2017-10-31T01:36:13.393Z,8.30
2017-10-31T01:38:41.781Z,7.17
2017-10-31T01:41:10.134Z,7.17
2017-10-31T01:43:38.443Z,8.13
2017-10-31T01:46:06.760Z,6.80
2017-10-31T01:48:35.109Z,8.03
2017-10-31T01:51:03.436Z,7.80
2017-10-31T01:53:31.758Z,7.40
2017-10-31T01:56:00.084Z,7.60
2017-10-31T01:58:28.412Z,7.27
2017-10-31T02:00:56.841Z,7.57
2017-10-31T02:03:25.158Z,8.07
2017-10-31T02:05:53.516Z,7.50
2017-10-31T02:08:21.833Z,8.00
2017-10-31T02:10:50.171Z,7.80
2017-10-31T02:13:18.518Z,8.90
2017-10-31T02:15:46.836Z,8.87
2017-10-31T02:18:15.194Z,8.30
2017-10-31T02:20:43.512Z,8.20
2017-10-31T02:23:11.930Z,8.17
2017-10-31T02:25:40.241Z,7.57
2017-10-31T02:28:08.625Z,7.77
2017-10-31T02:30:36.974Z,7.83
2017-10-31T02:33:05.314Z,8.43
2017-10-31T02:35:33.648Z,8.53
2017-10-31T02:38:01.980Z,8.43
2017-10-31T02:40:30.334Z,8.77
2017-10-31T02:42:58.683Z,8.00
2017-10-31T02:45:27.028Z,8.70
2017-10-31T02:47:55.341Z,10.33
2017-10-31T02:50:23.650Z,8.40
2017-10-31T02:52:52.027Z,8.47
2017-10-31T02:55:20.369Z,9.17
2017-10-31T02:57:48.728Z,8.77
2017-10-31T03:00:17.065Z,8.70
2017-10-31T03:02:45.382Z,8.40
2017-10-31T03:05:13.728Z,9.60
2017-10-31T03:07:42.130Z,8.77
2017-10-31T03:10:10.456Z,9.47
2017-10-31T03:12:38.760Z,8.40
2017-10-31T03:15:07.100Z,8.90
2017-10-31T03:17:35.416Z,8.50
2017-10-31T03:20:03.749Z,9.33
2017-10-31T03:22:32.211Z,8.80
2017-10-31T03:25:00.530Z,8.20
2017-10-31T03:27:28.852Z,8.90
2017-10-31T03:29:57.203Z,8.43
2017-10-31T03:32:25.514Z,8.43
2017-10-31T03:34:53.844Z,8.87
2017-10-31T03:37:22.166Z,9.00
2017-10-31T03:40:13.200Z,9.53
2017-10-31T03:42:41.559Z,9.90
2017-10-31T03:45:09.877Z,8.87
2017-10-31T03:47:38.202Z,8.33
2017-10-31T03:50:06.525Z,8.93
2017-10-31T03:52:34.929Z,9.67
2017-10-31T03:55:03.247Z,8.73
2017-10-31T03:57:31.580Z,8.70
2017-10-31T03:59:59.896Z,7.57
2017-10-31T04:02:28.224Z,8.83
2017-10-31T04:04:56.551Z,7.93
2017-10-31T04:07:24.883Z,8.07
2017-10-31T04:09:53.198Z,8.70
2017-10-31T04:12:21.524Z,7.47
2017-10-31T04:14:49.837Z,8.60
2017-10-31T04:17:18.386Z,9.27
2017-10-31T04:19:46.845Z,9.60
2017-10-31T04:22:15.180Z,10.03
2017-10-31T04:24:43.496Z,9.30
2017-10-31T04:27:11.911Z,8.80
2017-10-31T04:29:40.211Z,9.00
2017-10-31T04:32:08.892Z,9.00
2017-10-31T04:34:37.225Z,10.37
2017-10-31T04:37:05.562Z,10.00
2017-10-31T04:39:33.868Z,8.87
2017-10-31T04:42:02.232Z,8.00
2017-10-31T04:44:30.543Z,9.77
2017-10-31T04:46:58.861Z,8.70
2017-10-31T04:49:27.178Z,8.50
2017-10-31T04:51:55.502Z,8.90
2017-10-31T04:54:23.812Z,7.83
2017-10-31T04:56:52.133Z,6.67
2017-10-31T04:59:20.671Z,7.67
2017-10-31T05:01:48.976Z,7.40
2017-10-31T05:04:17.303Z,7.90
2017-10-31T05:06:45.617Z,7.27
2017-10-31T05:09:13.923Z,7.63
2017-10-31T05:11:42.294Z,7.07
2017-10-31T05:14:10.608Z,7.77
2017-10-31T05:16:38.924Z,7.60
2017-10-31T05:19:07.265Z,8.17
2017-10-31T05:21:35.641Z,7.83
2017-10-31T05:24:03.960Z,8.67
2017-10-31T05:26:32.276Z,8.37
2017-10-31T05:29:00.615Z,8.73
2017-10-31T05:31:28.928Z,9.30
2017-10-31T05:33:57.262Z,9.20
2017-10-31T05:36:25.578Z,7.90
2017-10-31T05:38:53.915Z,7.33
2017-10-31T05:41:22.237Z,7.90
2017-10-31T05:43:50.987Z,8.37
2017-10-31T05:46:19.341Z,7.90
2017-10-31T05:48:47.673Z,7.13
2017-10-31T05:51:16.047Z,7.60
2017-10-31T05:53:44.353Z,8.10
2017-10-31T05:56:12.683Z,7.43
2017-10-31T05:58:41.046Z,7.80
2017-10-31T06:01:09.365Z,8.27
2017-10-31T06:03:37.689Z,10.03
2017-10-31T06:06:06.017Z,8.93
2017-10-31T06:08:34.357Z,9.30
2017-10-31T06:11:03.524Z,7.93
2017-10-31T06:13:31.840Z,8.17
2017-10-31T06:16:00.196Z,7.40
2017-10-31T06:18:28.525Z,7.83
2017-10-31T06:20:56.824Z,7.80
2017-10-31T06:23:30.701Z,8.30
2017-10-31T06:26:04.663Z,6.30
2017-10-31T06:28:38.524Z,7.83
2017-10-31T06:31:12.474Z,7.60
2017-10-31T06:33:40.837Z,7.00
2017-10-31T06:36:09.153Z,7.00
2017-10-31T06:38:37.526Z,7.10
2017-10-31T06:41:05.836Z,6.90
2017-10-31T06:43:34.200Z,6.63
2017-10-31T06:46:02.517Z,7.43
2017-10-31T06:48:30.840Z,8.33
2017-10-31T06:50:59.189Z,7.03
2017-10-31T06:53:27.548Z,5.70
2017-10-31T06:55:55.877Z,6.70
2017-10-31T06:58:24.206Z,6.70
2017-10-31T07:00:52.523Z,6.00
2017-10-31T07:03:20.853Z,7.50
2017-10-31T07:05:49.209Z,7.00
2017-10-31T07:08:17.539Z,5.60
2017-10-31T07:10:45.853Z,5.70
2017-10-31T07:13:14.178Z,6.47
2017-10-31T07:15:42.593Z,5.67
2017-10-31T07:18:10.913Z,6.00
2017-10-31T07:20:39.250Z,7.10
2017-10-31T07:23:07.718Z,6.30
2017-10-31T07:25:36.064Z,6.03
2017-10-31T07:28:04.440Z,5.93
2017-10-31T07:30:32.765Z,6.17
2017-10-31T07:33:01.108Z,6.27
2017-10-31T07:35:29.478Z,6.97
2017-10-31T07:37:57.793Z,6.77
2017-10-31T07:40:26.126Z,6.10
2017-10-31T07:42:54.423Z,5.40
2017-10-31T07:45:22.750Z,5.00
2017-10-31T07:47:51.059Z,6.93
2017-10-31T07:50:19.409Z,7.00
2017-10-31T07:52:47.782Z,7.13
2017-10-31T07:55:16.336Z,5.90
2017-10-31T07:57:44.815Z,6.23
2017-10-31T08:00:13.349Z,6.07
2017-10-31T08:02:41.684Z,6.03
2017-10-31T08:05:10.008Z,5.80
2017-10-31T08:07:38.352Z,6.77
2017-10-31T08:10:06.688Z,5.90
2017-10-31T08:12:35.042Z,7.40
2017-10-31T08:15:03.367Z,7.20
2017-10-31T08:17:31.713Z,7.17
2017-10-31T08:20:00.517Z,8.30
2017-10-31T08:22:28.959Z,7.73
2017-10-31T08:24:57.423Z,8.20
2017-10-31T08:27:25.820Z,7.87
2017-10-31T08:29:54.185Z,7.80
2017-10-31T08:32:22.500Z,8.73
2017-10-31T08:34:50.887Z,8.43
2017-10-31T08:37:19.338Z,8.70
2017-10-31T08:39:48.693Z,9.30
2017-10-31T08:42:17.117Z,9.00
2017-10-31T08:44:46.541Z,10.83
2017-10-31T08:47:16.222Z,9.60
2017-10-31T08:49:44.570Z,8.80
2017-10-31T08:52:13.698Z,8.67
2017-10-31T08:54:42.938Z,8.77
2017-10-31T08:57:11.324Z,9.90
2017-10-31T08:59:42.684Z,9.43
2017-10-31T09:02:11.053Z,9.20
2017-10-31T09:04:39.392Z,9.57
2017-10-31T09:07:07.781Z,8.80
2017-10-31T09:09:43.285Z,10.30
2017-10-31T09:15:21.278Z,10.40
2017-10-31T09:22:54.918Z,9.50
2017-10-31T09:25:23.454Z,9.17
2017-10-31T09:27:52.015Z,7.87
2017-10-31T09:30:20.505Z,9.57
2017-10-31T09:35:21.670Z,9.70
2017-10-31T09:40:37.066Z,10.73
2017-10-31T09:43:05.826Z,10.00
2017-10-31T09:45:34.197Z,8.77
2017-10-31T09:48:02.906Z,10.57
2017-10-31T09:50:31.238Z,9.57
2017-10-31T09:52:59.568Z,7.80
2017-10-31T09:55:27.909Z,9.40
2017-10-31T09:57:57.056Z,8.80
2017-10-31T10:00:25.377Z,8.00
2017-10-31T10:02:55.380Z,7.50
2017-10-31T10:05:23.740Z,8.97
2017-10-31T10:07:52.116Z,8.13
2017-10-31T10:10:20.493Z,6.10
2017-10-31T10:12:48.996Z,7.40
2017-10-31T10:15:17.357Z,6.97
2017-10-31T10:17:45.730Z,7.80
2017-10-31T10:20:14.191Z,8.67
2017-10-31T10:22:42.768Z,8.87
2017-10-31T10:25:11.170Z,11.70
2017-10-31T10:28:00.090Z,8.67
2017-10-31T10:33:02.442Z,7.47
2017-10-31T10:35:30.813Z,15.57
2017-10-31T10:37:59.221Z,7.67
2017-10-31T10:40:28.252Z,7.70
2017-10-31T10:42:56.697Z,10.00
2017-10-31T10:45:25.625Z,12.53
2017-10-31T10:47:54.256Z,11.53
2017-10-31T10:50:22.657Z,8.10
2017-10-31T10:52:51.029Z,8.17
2017-10-31T10:55:19.434Z,8.67
2017-10-31T10:57:47.919Z,8.00
2017-10-31T11:00:16.336Z,7.67
2017-10-31T11:02:45.021Z,7.63
2017-10-31T11:05:13.472Z,7.67
2017-10-31T11:07:43.035Z,6.30
2017-10-31T11:10:11.462Z,7.03
2017-10-31T11:12:39.778Z,6.03
2017-10-31T11:15:08.259Z,6.20
2017-10-31T11:17:36.760Z,6.40
2017-10-31T11:20:07.129Z,6.03
2017-10-31T11:22:35.497Z,7.00
2017-10-31T11:25:03.950Z,5.23
2017-10-31T11:27:32.291Z,5.27
2017-10-31T11:30:00.883Z,6.53
2017-10-31T11:32:29.360Z,3.90
2017-10-31T11:34:57.848Z,4.83
2017-10-31T11:37:26.240Z,5.30
2017-10-31T11:39:55.341Z,4.97
2017-10-31T11:42:24.462Z,6.23
2017-10-31T11:44:52.966Z,5.20
2017-10-31T11:47:21.461Z,6.23
2017-10-31T11:49:49.938Z,6.97
2017-10-31T11:52:18.430Z,6.57
2017-10-31T11:54:47.833Z,6.57
2017-10-31T11:57:16.166Z,6.30
2017-10-31T11:59:45.391Z,8.43
2017-10-31T12:02:13.773Z,7.93
2017-10-31T12:04:42.267Z,7.00
2017-10-31T12:07:10.697Z,7.30
2017-10-31T12:09:39.114Z,7.17
2017-10-31T12:12:07.472Z,5.80
2017-10-31T12:14:35.889Z,5.90
2017-10-31T12:17:04.368Z,5.57
2017-10-31T12:19:32.720Z,5.90
2017-10-31T12:22:01.065Z,6.27
2017-10-31T12:24:29.772Z,5.80
2017-10-31T12:26:58.331Z,4.80
2017-10-31T12:29:27.967Z,5.07
2017-10-31T12:31:56.377Z,5.33
2017-10-31T12:34:24.820Z,5.70
2017-10-31T12:36:53.261Z,4.47
2017-10-31T12:39:21.738Z,6.90
2017-10-31T12:41:50.125Z,5.93
2017-10-31T12:44:19.238Z,5.97
2017-10-31T12:46:47.976Z,5.93
2017-10-31T12:49:16.338Z,5.47
2017-10-31T12:51:44.849Z,6.93
2017-10-31T12:54:13.794Z,6.13
2017-10-31T12:56:42.219Z,6.10
2017-10-31T12:59:10.556Z,6.10
2017-10-31T13:01:38.996Z,6.10
2017-10-31T13:04:07.541Z,5.90
2017-10-31T13:06:35.896Z,5.40
2017-10-31T13:09:04.236Z,5.27
2017-10-31T13:11:32.923Z,5.30
2017-10-31T13:14:02.055Z,4.40
2017-10-31T13:16:30.410Z,5.80
2017-10-31T13:19:01.140Z,6.13
2017-10-31T13:21:29.557Z,6.40
2017-10-31T13:23:58.195Z,5.60
2017-10-31T13:26:27.925Z,5.57
2017-10-31T13:28:56.572Z,4.77
2017-10-31T13:33:59.982Z,4.20
2017-10-31T13:36:28.662Z,3.87
2017-10-31T13:38:57.315Z,5.10
2017-10-31T13:41:26.059Z,4.33
2017-10-31T13:44:02.657Z,4.67
2017-10-31T13:46:31.256Z,6.00
2017-10-31T13:48:59.908Z,5.60
2017-10-31T13:51:28.453Z,4.70
2017-10-31T13:53:56.861Z,4.80
2017-10-31T13:56:25.262Z,5.70
2017-10-31T13:58:53.751Z,5.27
2017-10-31T14:01:22.226Z,5.27
2017-10-31T14:03:50.896Z,5.03
2017-10-31T14:06:19.573Z,4.90
2017-10-31T14:08:49.189Z,4.63
2017-10-31T14:11:18.072Z,4.73
2017-10-31T14:13:46.402Z,4.03
2017-10-31T14:16:14.789Z,3.90
2017-10-31T14:18:43.397Z,4.37
2017-10-31T14:21:13.930Z,4.47
2017-10-31T14:23:42.286Z,5.40
2017-10-31T14:26:10.697Z,4.07
2017-10-31T14:28:39.074Z,5.13
2017-10-31T14:31:07.457Z,5.50
2017-10-31T14:33:35.893Z,5.50
2017-10-31T14:36:05.130Z,5.30
2017-10-31T14:38:33.496Z,4.30
2017-10-31T14:41:01.811Z,6.00
2017-10-31T14:43:30.244Z,5.23
2017-10-31T14:45:58.571Z,5.57
2017-10-31T14:48:27.029Z,5.80
2017-10-31T14:50:55.447Z,5.90
2017-10-31T14:53:24.051Z,5.90
2017-10-31T14:55:52.462Z,6.37
2017-10-31T14:58:20.774Z,5.40
2017-10-31T15:00:49.179Z,5.70
2017-10-31T15:03:17.589Z,6.10
2017-10-31T15:05:45.990Z,5.20
2017-10-31T15:08:14.320Z,6.80
2017-10-31T15:10:43.017Z,4.93
2017-10-31T15:13:11.639Z,5.83
2017-10-31T15:15:40.179Z,6.60
2017-10-31T15:18:08.601Z,5.50
2017-10-31T15:20:37.046Z,5.68
2017-10-31T15:23:05.456Z,7.03
2017-10-31T15:25:36.094Z,7.63
2017-10-31T15:28:06.420Z,5.17
2017-10-31T15:30:34.858Z,6.03
2017-10-31T15:33:03.394Z,6.10
2017-10-31T15:35:31.751Z,5.20
2017-10-31T15:38:00.175Z,6.20
2017-10-31T15:40:28.610Z,6.13
2017-10-31T15:42:57.011Z,5.63
2017-10-31T15:45:25.418Z,6.13
2017-10-31T15:47:53.804Z,7.20
2017-10-31T15:50:22.234Z,6.43
2017-10-31T15:52:50.659Z,5.67
2017-10-31T15:55:19.009Z,4.63
2017-10-31T15:57:47.325Z,5.80
2017-10-31T16:00:15.708Z,5.63
2017-10-31T16:02:44.079Z,5.53
2017-10-31T16:05:12.497Z,5.80
2017-10-31T16:07:40.854Z,5.43
2017-10-31T16:10:09.586Z,7.10
2017-10-31T16:12:37.950Z,5.80
2017-10-31T16:15:06.300Z,4.50
2017-10-31T16:17:34.684Z,6.60
2017-10-31T16:20:03.099Z,5.30
2017-10-31T16:22:31.462Z,6.30
2017-10-31T16:24:59.820Z,5.80
2017-10-31T16:27:28.315Z,6.00
2017-10-31T16:29:56.716Z,5.83
2017-10-31T16:32:25.076Z,6.47
2017-10-31T16:34:53.432Z,6.10
2017-10-31T16:37:21.852Z,6.00
2017-10-31T16:39:50.203Z,5.30
2017-10-31T16:42:18.569Z,6.00
2017-10-31T16:44:46.987Z,6.77
2017-10-31T16:47:15.677Z,6.03
2017-10-31T16:49:44.159Z,6.63
2017-10-31T16:52:12.518Z,6.43
2017-10-31T16:54:40.959Z,6.90
2017-10-31T16:57:09.279Z,7.17
2017-10-31T16:59:37.664Z,7.47
2017-10-31T17:02:06.064Z,6.60
2017-10-31T17:04:34.493Z,7.13
2017-10-31T17:07:02.942Z,8.07
2017-10-31T17:09:31.434Z,7.77
2017-10-31T17:11:59.998Z,8.20
2017-10-31T17:14:28.388Z,6.90
2017-10-31T17:16:56.776Z,7.00
2017-10-31T17:19:25.147Z,7.33
2017-10-31T17:21:53.478Z,8.93
2017-10-31T17:24:21.910Z,8.70
2017-10-31T17:26:50.261Z,8.50
2017-10-31T17:29:18.713Z,8.57
2017-10-31T17:31:47.073Z,8.50
2017-10-31T17:34:15.461Z,10.07
2017-10-31T17:36:43.965Z,9.50
2017-10-31T17:39:12.455Z,9.97
2017-10-31T17:41:40.882Z,9.20
2017-10-31T17:44:09.279Z,10.30
2017-10-31T17:46:37.733Z,11.13
2017-10-31T17:49:06.118Z,10.43
2017-10-31T17:51:34.462Z,9.40
2017-10-31T17:54:03.221Z,8.20
2017-10-31T17:56:31.875Z,10.37
2017-10-31T17:59:00.217Z,10.50
2017-10-31T18:01:28.659Z,10.53
2017-10-31T18:03:57.140Z,10.20
2017-10-31T18:06:25.543Z,9.70
2017-10-31T18:08:53.990Z,11.17
2017-10-31T18:11:22.487Z,10.53
2017-10-31T18:13:52.066Z,11.23
2017-10-31T18:16:22.648Z,11.27
2017-10-31T18:18:51.170Z,11.10
2017-10-31T18:21:19.535Z,10.83
2017-10-31T18:23:47.944Z,10.77
2017-10-31T18:26:16.461Z,13.87
2017-10-31T18:28:45.035Z,11.17
2017-10-31T18:31:14.337Z,11.30
2017-10-31T18:33:43.248Z,10.77
2017-10-31T18:36:12.383Z,12.80
2017-10-31T18:38:40.799Z,12.73
2017-10-31T18:41:12.961Z,10.87
2017-10-31T18:43:44.444Z,12.60
2017-10-31T18:46:16.126Z,12.60
2017-10-31T18:48:45.220Z,11.37
2017-10-31T18:51:13.867Z,12.33
2017-10-31T18:53:43.249Z,11.83
2017-10-31T18:56:11.939Z,12.70
2017-10-31T18:58:40.463Z,12.10
2017-10-31T19:01:08.918Z,11.30
2017-10-31T19:03:37.501Z,13.27
2017-10-31T19:06:05.886Z,12.13
2017-10-31T19:08:34.356Z,13.83
2017-10-31T19:11:03.807Z,13.00
2017-10-31T19:13:33.396Z,10.57
2017-10-31T19:16:01.769Z,14.10
2017-10-31T19:18:30.282Z,13.87
2017-10-31T19:20:58.749Z,12.00
2017-10-31T19:23:27.456Z,11.53
2017-10-31T19:25:55.859Z,11.40
2017-10-31T19:28:24.302Z,12.53
2017-10-31T19:30:52.973Z,12.50
2017-10-31T19:33:21.417Z,11.97
2017-10-31T19:35:50.568Z,12.27
2017-10-31T19:38:18.955Z,12.43
2017-10-31T19:40:48.441Z,14.27
2017-10-31T19:43:16.806Z,11.77
2017-10-31T19:45:45.442Z,12.00
2017-10-31T19:48:13.970Z,12.90
2017-10-31T19:50:43.010Z,12.00
2017-10-31T19:53:11.450Z,12.00
2017-10-31T19:55:41.169Z,13.33
2017-10-31T19:58:09.644Z,14.93
2017-10-31T20:00:38.335Z,13.30
2017-10-31T20:03:07.224Z,13.70
2017-10-31T20:05:36.745Z,13.77
2017-10-31T20:08:05.113Z,13.57
2017-10-31T20:10:33.511Z,12.83
2017-10-31T20:13:01.935Z,12.80
2017-10-31T20:15:30.778Z,12.87
2017-10-31T20:17:59.120Z,12.17
2017-10-31T20:20:27.753Z,13.13
2017-10-31T20:22:56.061Z,14.00
2017-10-31T20:25:24.541Z,16.40
2017-10-31T20:27:52.885Z,17.60
2017-10-31T20:30:21.575Z,16.03
2017-10-31T20:32:49.958Z,14.73
2017-10-31T20:35:18.460Z,14.93
2017-10-31T20:37:47.018Z,13.57
2017-10-31T20:40:15.398Z,14.20
2017-10-31T20:42:45.036Z,13.20
2017-10-31T20:45:13.510Z,12.63
2017-10-31T20:47:41.881Z,11.57
2017-10-31T20:50:10.395Z,14.63
2017-10-31T20:52:38.862Z,13.60
2017-10-31T20:55:07.442Z,14.97
2017-10-31T20:57:35.786Z,16.53
2017-10-31T21:00:04.161Z,13.73
2017-10-31T21:02:32.485Z,15.63
2017-10-31T21:05:00.840Z,15.23
2017-10-31T21:07:30.162Z,14.40
2017-10-31T21:09:58.534Z,15.47
2017-10-31T21:12:26.951Z,15.07
2017-10-31T21:14:55.313Z,14.83
2017-10-31T21:17:23.727Z,14.57
2017-10-31T21:19:52.078Z,15.80
2017-10-31T21:22:21.258Z,16.03
2017-10-31T21:24:50.140Z,13.93
2017-10-31T21:27:18.528Z,14.60
2017-10-31T21:29:47.019Z,14.20
2017-10-31T21:32:15.465Z,14.87
2017-10-31T21:34:43.912Z,14.53
2017-10-31T21:37:13.367Z,14.80
2017-10-31T21:39:41.698Z,15.03
2017-10-31T21:42:10.055Z,15.57
2017-10-31T21:44:38.620Z,15.43
2017-10-31T21:47:06.987Z,14.90
2017-10-31T21:49:35.312Z,15.83
2017-10-31T21:52:03.748Z,15.93
2017-10-31T21:54:32.096Z,14.70
2017-10-31T21:57:00.482Z,13.43
2017-10-31T21:59:28.806Z,13.63
2017-10-31T22:01:57.173Z,14.27
2017-10-31T22:04:25.647Z,15.80
2017-10-31T22:06:54.354Z,16.80
2017-10-31T22:09:22.699Z,17.30
2017-10-31T22:11:51.113Z,14.60
2017-10-31T22:14:19.427Z,15.37
2017-10-31T22:16:47.757Z,14.90
2017-10-31T22:19:16.102Z,14.70
2017-10-31T22:21:45.414Z,14.13
2017-10-31T22:24:13.793Z,15.10
2017-10-31T22:26:42.166Z,13.93
2017-10-31T22:29:10.539Z,13.40
2017-10-31T22:31:38.904Z,14.83
2017-10-31T22:34:07.228Z,13.67
2017-10-31T22:36:35.702Z,14.17
2017-10-31T22:39:04.031Z,14.17
2017-10-31T22:41:32.372Z,14.53
2017-10-31T22:44:01.158Z,13.10
2017-10-31T22:46:29.474Z,12.37
2017-10-31T22:48:57.909Z,13.17
2017-10-31T22:51:26.347Z,13.90
2017-10-31T22:53:54.753Z,12.10
2017-10-31T22:56:23.155Z,13.00
2017-10-31T22:58:51.506Z,11.90
2017-10-31T23:01:19.836Z,11.90
2017-10-31T23:03:48.174Z,13.63
2017-10-31T23:06:16.517Z,13.00
2017-10-31T23:08:44.842Z,11.93
2017-10-31T23:11:13.841Z,12.93
2017-10-31T23:13:42.426Z,12.20
2017-10-31T23:16:11.225Z,13.37
2017-10-31T23:18:39.646Z,13.30
2017-10-31T23:21:08.602Z,12.07
2017-10-31T23:23:37.169Z,13.07
2017-10-31T23:26:05.949Z,10.47
2017-10-31T23:28:34.474Z,12.30
2017-10-31T23:31:02.772Z,11.70
2017-10-31T23:33:31.109Z,12.77
2017-10-31T23:35:59.573Z,11.47
2017-10-31T23:38:27.988Z,11.13
2017-10-31T23:40:56.682Z,11.67
2017-10-31T23:43:25.128Z,12.33
2017-10-31T23:45:53.495Z,12.63
2017-10-31T23:48:21.840Z,12.00
2017-10-31T23:50:50.244Z,11.70
2017-10-31T23:53:18.553Z,10.60
2017-10-31T23:55:46.917Z,10.27
2017-10-31T23:58:15.309Z,11.20
